Aeroporto :
LOGIN :

Iscrizione | Disclaimer

   EN    FR    IT 

 










Sommario :    VFR   VFR Marginale   IFR   IFR Intensivo   IFR Molto Intensivo
Visibilità : 
Base nubi : 
>= 8 km
>= 3000ft
5 / 8 km
1000 / 3000 ft
1500m / 5 km
500 / 1000 ft
800 / 1500m
200 / 500 ft
< 800m
< 200 ft
Simboli :   Temporali  Nebbia  Neve Forte  Precipitazioni Forti  Vento > 20 kt
SIGMETs :   Varie  Temporali  Ghiacco  Turbolenza  Onda orograficha  Ceneri Vulcaniche







- Altitudine del aeroporto : 348 ft
- Codice IATA : STN
- Carte del aeroporto


EGSS - London Stansted

ULTIMO METAR :
  • 240750Z AUTO 12007KT 090V170 6000 NCD 13/10 Q0993

METARs OBSOLETI :
  • 240720Z AUTO VRB08G24KT 6000 NCD 13/10 Q0993
  • 240650Z AUTO VRB03KT 5000 HZ NCD 13/09 Q0993
  • 240620Z AUTO 13006KT 110V170 5000 HZ NCD 11/09 Q0993
  • 240550Z AUTO 09004KT 050V130 5000 HZ NCD 11/08 Q0993
  • 240520Z AUTO 11004KT 5000 HZ NCD 10/08 Q0993

TAF TAF EGSS
Valido dal 24 a 06 ore il 25 a 12 ore UTC


240505Z 2406/2512 08005KT 4500 HZ FEW030
BECMG 2406/2408 7000 NSW
BECMG 2408/2410 14010KT 9999
TEMPO 2410/2418 7000 SHRA
BECMG 2411/2414 20014KT
PROB30
TEMPO 2411/2415 18016G26KT 4000 +SHRA +TSRA BKN014 BKN027CB
BECMG 2419/2422 13010KT
TEMPO 2502/2512 6000 SHRA
TEMPO 2502/2509 BKN011
ATIS : +44 1279 669 325
Nessun NOTAM noto per questo aeroporto.



MetMap, La meteo Aeronautica in un colpo d'occhio ! - Copyright ORBIFLY Dicembre 2007 - Disclaimer

ORBIFLY MET'MAP TEAM :

Programmazione e sviluppo : Alexandra Zaïnal
Concezione e sviluppo : Baudouin d'Aumeries
Co-Programmazione e sviluppo : Marc-Olivier Méhu
Supporto tecnico e logistico : Manuel Goepfert
Aiuto per la traduzione : Arnaldo La Scala

Contatto : metmap@orbifly.com




FONTI E CREDITI :

   NOAA